Time;durP1;ratioP1;P1;durP2;ratioP2;P2;SDS_P1;SDS_P2;PMS_P1;PMS_P2;Temp;Humidity;BMP_temperature;BMP_pressure;BME280_temperature;BME280_humidity;BME280_pressure;Samples;Min_cycle;Max_cycle;Signal;HPM_P1;HPM_P2
2022/10/21 00:02:22;;;;;;;54.33;41.83;;;22.60;53.80;;;;;;4738404;59;22305;-31
2022/10/21 00:07:23;;;;;;;51.20;41.47;;;22.60;53.90;;;;;;4737988;59;21062;-33
2022/10/21 00:12:23;;;;;;;53.75;41.40;;;22.60;53.90;;;;;;4758701;55;20994;-29
2022/10/21 00:17:24;;;;;;;54.08;41.28;;;22.60;53.90;;;;;;4758296;55;20982;-33
2022/10/21 00:22:27;;;;;;;53.63;42.42;;;22.60;53.80;;;;;;4749082;55;21002;-32
2022/10/21 00:27:27;;;;;;;52.13;40.88;;;22.60;53.80;;;;;;4738220;59;21590;-27
2022/10/21 00:32:28;;;;;;;50.08;40.20;;;22.60;53.80;;;;;;4738585;59;21025;-31
2022/10/21 00:37:30;;;;;;;49.50;39.60;;;22.60;53.80;;;;;;4757283;55;21025;-34
2022/10/21 00:42:36;;;;;;;51.17;40.63;;;22.60;53.80;;;;;;4816287;55;21002;-34
2022/10/21 00:47:43;;;;;;;50.60;39.33;;;22.60;53.80;;;;;;4749431;55;20990;-36
2022/10/21 00:52:44;;;;;;;49.53;37.60;;;22.60;53.70;;;;;;4761113;55;20990;-36
2022/10/21 00:57:48;;;;;;;47.50;38.33;;;22.60;53.80;;;;;;4737590;59;21022;-31
2022/10/21 01:02:52;;;;;;;46.97;37.15;;;22.60;53.70;;;;;;4759006;55;21065;-29
2022/10/21 01:07:53;;;;;;;45.72;36.75;;;22.60;53.70;;;;;;4759215;55;21057;-35
2022/10/21 01:15:35;;;;;;;46.47;36.25;;;22.60;53.80;;;;;;4750160;55;21026;-39
2022/10/21 01:21:08;;;;;;;46.03;36.35;;;22.60;53.70;;;;;;4743906;55;20990;-38
2022/10/21 01:28:10;;;;;;;42.95;35.97;;;22.60;53.70;;;;;;4750288;55;21061;-35
2022/10/21 01:36:49;;;;;;;43.55;34.95;;;22.60;53.70;;;;;;4747043;55;21135;-34
2022/10/21 01:42:05;;;;;;;44.15;34.55;;;22.60;53.70;;;;;;4743210;55;21038;-38
2022/10/21 01:47:19;;;;;;;39.63;32.63;;;22.60;53.70;;;;;;4743799;55;21018;-35
2022/10/21 01:52:21;;;;;;;42.03;33.65;;;22.50;53.60;;;;;;4743462;55;21476;-34
2022/10/21 01:57:25;;;;;;;40.88;32.72;;;22.50;53.60;;;;;;4764423;55;21070;-31
2022/10/21 02:02:31;;;;;;;40.25;33.05;;;22.50;53.60;;;;;;4773532;55;21013;-34
2022/10/21 02:07:32;;;;;;;39.50;32.88;;;22.50;53.60;;;;;;4763193;55;21029;-27
2022/10/21 02:12:35;;;;;;;40.63;32.20;;;22.50;53.50;;;;;;4815094;55;21453;-32
2022/10/21 02:17:40;;;;;;;38.97;31.62;;;22.50;53.40;;;;;;4769518;55;21082;-28
2022/10/21 02:22:43;;;;;;;37.65;30.92;;;22.50;53.50;;;;;;4739138;59;21054;-33
2022/10/21 02:27:44;;;;;;;38.63;30.88;;;22.50;53.40;;;;;;4739299;55;21026;-28
2022/10/21 02:35:36;;;;;;;37.15;31.37;;;22.50;53.60;;;;;;4750194;55;20986;-32
2022/10/21 02:40:54;;;;;;;37.05;29.35;;;22.50;53.60;;;;;;4741534;55;21365;-32
2022/10/21 02:45:59;;;;;;;36.13;29.25;;;22.50;53.40;;;;;;4741205;55;20994;-36
2022/10/21 02:51:03;;;;;;;38.38;29.30;;;22.50;53.50;;;;;;4738879;59;20998;-38
2022/10/21 02:56:05;;;;;;;37.38;29.58;;;22.50;53.50;;;;;;4742008;55;21037;-34
2022/10/21 03:01:05;;;;;;;34.22;28.08;;;22.50;53.50;;;;;;4738944;59;21058;-32
2022/10/21 03:06:06;;;;;;;33.67;27.80;;;22.50;53.60;;;;;;4745639;55;21009;-28
2022/10/21 03:11:07;;;;;;;35.38;28.42;;;22.50;53.50;;;;;;4763704;55;21342;-29
2022/10/21 03:16:10;;;;;;;32.58;27.77;;;22.50;53.60;;;;;;4737909;59;21010;-31
2022/10/21 03:21:11;;;;;;;32.92;28.00;;;22.50;53.60;;;;;;4801782;55;21065;-32
2022/10/21 03:26:12;;;;;;;31.58;26.20;;;22.50;53.60;;;;;;4757906;55;20990;-39
2022/10/21 03:31:13;;;;;;;34.67;27.50;;;22.50;53.50;;;;;;4752519;55;21002;-36
2022/10/21 03:36:13;;;;;;;33.53;26.48;;;22.50;53.60;;;;;;4738125;57;21026;-34
2022/10/21 03:41:14;;;;;;;31.15;26.08;;;22.40;53.50;;;;;;4739669;55;21045;-35
2022/10/21 03:46:15;;;;;;;30.80;25.50;;;22.50;53.60;;;;;;4743750;55;21005;-32
2022/10/21 03:51:16;;;;;;;30.35;24.92;;;22.40;53.40;;;;;;4744508;55;21009;-31
2022/10/21 03:56:18;;;;;;;30.73;25.17;;;22.40;53.40;;;;;;4737598;55;22405;-35
2022/10/21 04:01:18;;;;;;;29.67;24.98;;;22.40;53.40;;;;;;4738089;59;21022;-31
2022/10/21 04:06:21;;;;;;;34.45;25.35;;;22.40;53.30;;;;;;4747374;55;21065;-27
2022/10/21 04:11:22;;;;;;;28.85;23.87;;;22.40;53.30;;;;;;4745603;55;21022;-27
2022/10/21 04:16:23;;;;;;;28.87;23.50;;;22.40;53.30;;;;;;4792444;55;21082;-30
2022/10/21 04:21:24;;;;;;;31.40;24.37;;;22.40;53.20;;;;;;4768630;55;21137;-32
2022/10/21 04:26:25;;;;;;;30.70;23.77;;;22.40;53.30;;;;;;4739388;55;21141;-36
2022/10/21 04:31:25;;;;;;;27.48;22.92;;;22.40;53.20;;;;;;4793360;55;21098;-32
2022/10/21 04:36:26;;;;;;;27.05;22.17;;;22.40;53.20;;;;;;4737916;59;21022;-36
2022/10/21 04:41:27;;;;;;;27.58;23.00;;;22.40;53.40;;;;;;4781529;55;21097;-37
2022/10/21 04:46:28;;;;;;;29.20;22.70;;;22.40;53.20;;;;;;4752872;55;21022;-29
2022/10/21 04:51:28;;;;;;;27.70;22.52;;;22.40;53.20;;;;;;4738236;59;21009;-32
2022/10/21 04:56:29;;;;;;;27.58;22.37;;;22.40;53.10;;;;;;4739501;55;21023;-32
2022/10/21 05:01:30;;;;;;;26.58;21.45;;;22.40;53.10;;;;;;4739301;55;21012;-29
2022/10/21 05:06:31;;;;;;;27.00;21.20;;;22.40;53.20;;;;;;4848622;55;20997;-29
2022/10/21 05:11:32;;;;;;;26.52;21.55;;;22.40;53.00;;;;;;4741800;55;21122;-30
2022/10/21 05:16:33;;;;;;;25.98;21.58;;;22.40;53.10;;;;;;4737547;59;20998;-40
2022/10/21 05:21:34;;;;;;;23.67;20.33;;;22.40;53.10;;;;;;4745047;55;21002;-29
2022/10/21 05:26:34;;;;;;;24.95;21.05;;;22.40;53.10;;;;;;4747346;55;21025;-36
2022/10/21 05:31:37;;;;;;;24.90;21.02;;;22.40;53.10;;;;;;4799398;55;21516;-32
2022/10/21 05:36:37;;;;;;;24.48;20.67;;;22.30;53.10;;;;;;4759285;55;21051;-28
2022/10/21 05:41:38;;;;;;;25.00;20.92;;;22.30;53.10;;;;;;4740563;55;20990;-32
2022/10/21 05:46:39;;;;;;;23.90;20.60;;;22.40;53.20;;;;;;4789521;55;21017;-29
2022/10/21 05:51:40;;;;;;;27.02;21.90;;;22.30;53.00;;;;;;4754466;55;21001;-32
2022/10/21 05:56:41;;;;;;;25.45;21.12;;;22.30;53.10;;;;;;4751400;55;21069;-28
2022/10/21 06:01:42;;;;;;;24.70;21.15;;;22.30;53.10;;;;;;4779666;55;20998;-27
2022/10/21 06:06:43;;;;;;;26.00;20.70;;;22.30;53.10;;;;;;4750439;55;20998;-27
2022/10/21 06:11:44;;;;;;;26.98;21.35;;;22.50;53.10;;;;;;4754537;55;21006;-31
2022/10/21 06:16:44;;;;;;;25.83;20.65;;;22.30;52.90;;;;;;4748002;55;21022;-28
2022/10/21 06:21:47;;;;;;;26.25;20.73;;;22.30;53.00;;;;;;4812591;55;21495;-37
2022/10/21 06:26:49;;;;;;;27.50;21.83;;;22.30;52.90;;;;;;4741015;55;21037;-28
2022/10/21 06:31:50;;;;;;;25.75;20.45;;;22.30;52.80;;;;;;4748557;55;21508;-31
2022/10/21 06:36:51;;;;;;;27.35;22.25;;;22.30;53.50;;;;;;4737959;59;21089;-32
2022/10/21 06:41:52;;;;;;;24.80;20.92;;;22.30;52.80;;;;;;4777297;55;21045;-36
2022/10/21 06:46:53;;;;;;;27.83;21.10;;;22.30;52.80;;;;;;4750879;55;21010;-29
2022/10/21 06:51:53;;;;;;;26.30;21.80;;;22.30;52.90;;;;;;4766963;55;21436;-28
2022/10/21 06:56:54;;;;;;;26.45;21.62;;;22.30;52.80;;;;;;4737219;59;21070;-33
2022/10/21 07:01:55;;;;;;;27.83;21.33;;;22.30;52.50;;;;;;4761896;55;21054;-37
2022/10/21 07:06:56;;;;;;;30.83;23.42;;;22.30;52.40;;;;;;4738193;59;20994;-38
2022/10/21 07:12:00;;;;;;;36.78;26.30;;;22.40;52.10;;;;;;4752562;55;21014;-38
2022/10/21 07:17:01;;;;;;;33.55;26.02;;;22.40;51.80;;;;;;4783699;55;21524;-39
2022/10/21 07:22:01;;;;;;;36.58;27.73;;;22.50;51.80;;;;;;4738677;55;21123;-40
2022/10/21 07:27:02;;;;;;;38.15;29.12;;;22.50;51.40;;;;;;4749900;55;21025;-35
2022/10/21 07:32:03;;;;;;;42.70;31.17;;;22.50;51.40;;;;;;4738690;55;21130;-36
2022/10/21 07:37:04;;;;;;;41.60;31.37;;;22.60;51.30;;;;;;4739476;55;21132;-33
2022/10/21 07:42:05;;;;;;;44.22;32.70;;;22.60;51.20;;;;;;4738078;59;21137;-32
2022/10/21 07:47:06;;;;;;;44.63;33.72;;;22.60;51.00;;;;;;4741065;55;21010;-30
2022/10/21 07:52:06;;;;;;;49.38;35.30;;;22.60;50.60;;;;;;4740007;55;21561;-31
2022/10/21 07:57:07;;;;;;;49.72;35.20;;;22.70;50.60;;;;;;4741176;55;21502;-31
2022/10/21 08:02:12;;;;;;;55.42;38.45;;;22.70;50.40;;;;;;4738562;59;21053;-28
2022/10/21 08:07:13;;;;;;;62.42;44.10;;;22.80;52.50;;;;;;4769518;55;21054;-27
2022/10/21 08:12:14;;;;;;;71.18;47.05;;;22.80;50.80;;;;;;4783678;55;21075;-38
2022/10/21 08:17:15;;;;;;;83.95;58.92;;;22.80;50.90;;;;;;4748847;55;21492;-38
2022/10/21 08:22:18;;;;;;;87.75;60.30;;;22.80;50.30;;;;;;4771901;55;21002;-27
2022/10/21 08:27:19;;;;;;;91.87;61.35;;;22.80;50.50;;;;;;4772479;55;21085;-29
2022/10/21 08:32:20;;;;;;;92.15;63.28;;;22.80;50.70;;;;;;4766980;55;21050;-30
2022/10/21 08:37:21;;;;;;;94.32;62.58;;;22.90;50.50;;;;;;4745465;55;21056;-37
2022/10/21 08:42:23;;;;;;;86.82;62.92;;;22.90;50.60;;;;;;4738709;55;21507;-40
2022/10/21 08:47:44;;;;;;;99.80;67.90;;;22.90;50.40;;;;;;4771789;55;21005;-27
2022/10/21 08:53:00;;;;;;;96.37;67.28;;;22.90;50.40;;;;;;4747830;55;21085;-42
2022/10/21 08:58:03;;;;;;;98.25;68.25;;;22.90;50.10;;;;;;4739075;55;21018;-32
2022/10/21 09:03:16;;;;;;;96.87;67.10;;;22.90;49.80;;;;;;4738027;59;21086;-35
2022/10/21 09:09:51;;;;;;;99.28;69.70;;;22.80;49.50;;;;;;5141791;55;21630;-38
2022/10/21 09:16:26;;;;;;;100.30;68.93;;;22.80;49.30;;;;;;4744481;55;21089;-33
2022/10/21 09:22:19;;;;;;;101.25;70.90;;;22.80;48.90;;;;;;4745164;55;20990;-44
2022/10/21 09:27:21;;;;;;;103.15;73.70;;;22.80;49.10;;;;;;4751704;55;21078;-48
2022/10/21 09:32:50;;;;;;;96.95;69.12;;;22.90;49.50;;;;;;4738788;59;21006;-30
2022/10/21 09:38:09;;;;;;;94.00;69.07;;;22.90;49.30;;;;;;4738506;55;21237;-38
2022/10/21 09:43:23;;;;;;;95.20;69.18;;;22.90;49.40;;;;;;4738950;55;21022;-36
2022/10/21 09:48:41;;;;;;;89.97;66.28;;;22.90;49.30;;;;;;4745187;55;21017;-41
2022/10/21 09:53:49;;;;;;;94.57;67.37;;;22.90;49.30;;;;;;4745488;55;21025;-37
2022/10/21 09:59:36;;;;;;;91.75;66.85;;;22.90;49.30;;;;;;4754734;55;21006;-28
2022/10/21 10:04:36;;;;;;;80.57;64.00;;;22.90;49.20;;;;;;4738112;55;21109;-30
2022/10/21 10:09:44;;;;;;;86.35;64.30;;;22.90;49.20;;;;;;4737273;59;21098;-27
2022/10/21 10:14:46;;;;;;;92.62;66.30;;;23.00;49.30;;;;;;4738212;59;21115;-37
2022/10/21 10:34:54;;;;;;;86.78;66.87;;;23.00;49.30;;;;;;4737027;59;21018;-29
2022/10/21 10:39:57;;;;;;;93.28;69.10;;;22.90;49.10;;;;;;4793345;55;21036;-28
2022/10/21 10:45:11;;;;;;;92.97;68.60;;;22.90;49.10;;;;;;4743705;55;21061;-33
2022/10/21 10:50:41;;;;;;;89.78;67.43;;;22.90;49.10;;;;;;4738782;59;20982;-29
2022/10/21 10:55:44;;;;;;;96.65;71.00;;;22.90;49.00;;;;;;4753754;55;21030;-38
2022/10/21 11:00:46;;;;;;;97.57;73.78;;;22.90;48.90;;;;;;4752324;55;21042;-34
2022/10/21 11:05:50;;;;;;;98.72;77.00;;;23.00;48.90;;;;;;4775925;55;21564;-35
2022/10/21 11:11:55;;;;;;;98.68;75.18;;;23.00;48.90;;;;;;4738323;55;21516;-38
2022/10/21 11:17:11;;;;;;;110.10;83.80;;;23.00;49.60;;;;;;4736287;59;21019;-35
2022/10/21 11:25:21;;;;;;;113.68;80.68;;;23.00;49.30;;;;;;4747758;55;21617;-43
2022/10/21 11:30:44;;;;;;;102.20;79.53;;;23.00;49.60;;;;;;4750446;55;21480;-37
2022/10/21 11:39:55;;;;;;;100.97;76.75;;;23.00;49.90;;;;;;4740541;55;21607;-36
2022/10/21 11:48:12;;;;;;;110.85;83.62;;;23.10;51.10;;;;;;4745850;55;21061;-42
2022/10/21 11:53:46;;;;;;;112.35;85.70;;;23.20;50.90;;;;;;4737450;59;21097;-31
2022/10/21 11:59:11;;;;;;;114.95;86.40;;;23.20;51.00;;;;;;4757948;55;21039;-45
2022/10/21 12:04:36;;;;;;;118.28;88.00;;;23.20;51.30;;;;;;4756676;55;20998;-37
2022/10/21 12:09:52;;;;;;;120.97;88.12;;;23.40;51.50;;;;;;4756536;55;20998;-27
2022/10/21 12:15:01;;;;;;;123.05;93.43;;;23.20;51.30;;;;;;4737017;55;21145;-32
2022/10/21 12:20:06;;;;;;;119.70;86.65;;;23.20;51.30;;;;;;4737326;59;22142;-34
2022/10/21 12:25:37;;;;;;;121.70;88.72;;;23.30;52.20;;;;;;4754356;55;21098;-36
2022/10/21 12:33:49;;;;;;;110.03;84.55;;;23.30;52.00;;;;;;4771121;55;21097;-47
2022/10/21 12:38:55;;;;;;;118.47;86.75;;;23.30;52.10;;;;;;4737807;55;21208;-28
2022/10/21 12:44:29;;;;;;;115.37;83.57;;;23.30;52.30;;;;;;4756868;55;21115;-31
2022/10/21 12:49:32;;;;;;;108.60;82.55;;;23.30;52.70;;;;;;4739298;55;21017;-32
2022/10/21 12:54:49;;;;;;;108.63;79.57;;;23.30;52.90;;;;;;4775525;55;21081;-27
2022/10/21 12:59:50;;;;;;;104.30;76.82;;;23.20;53.00;;;;;;4738016;55;21186;-34
2022/10/21 13:04:52;;;;;;;101.40;78.28;;;23.10;53.20;;;;;;4767318;55;21061;-29
2022/10/21 13:10:21;;;;;;;101.10;76.72;;;23.10;53.30;;;;;;4772606;55;21101;-28
2022/10/21 13:15:47;;;;;;;102.07;76.18;;;23.00;53.30;;;;;;4738066;59;21079;-27
2022/10/21 13:20:58;;;;;;;100.30;75.50;;;23.00;53.40;;;;;;4741569;55;21108;-27
2022/10/21 13:26:13;;;;;;;100.18;74.18;;;23.00;53.40;;;;;;4737740;59;21480;-28
2022/10/21 13:31:20;;;;;;;97.00;72.00;;;23.00;53.50;;;;;;4755789;55;21069;-32
2022/10/21 13:36:31;;;;;;;;;;;23.00;53.50;;;;;;4741376;59;21508;-28
2022/10/21 13:41:32;;;;;;;93.50;71.32;;;22.90;53.50;;;;;;4743633;55;20347;-30
2022/10/21 13:46:42;;;;;;;101.15;72.45;;;22.90;53.60;;;;;;4759735;55;21061;-30
2022/10/21 13:51:46;;;;;;;94.50;72.05;;;22.90;53.70;;;;;;4738938;59;21211;-28
2022/10/21 13:56:47;;;;;;;91.57;68.53;;;22.90;53.60;;;;;;4737220;55;21540;-28
2022/10/21 14:02:03;;;;;;;90.07;69.90;;;22.90;53.80;;;;;;4753086;55;21496;-32
2022/10/21 14:07:07;;;;;;;86.22;68.20;;;22.80;53.70;;;;;;4766717;55;21141;-32
2022/10/21 14:13:17;;;;;;;90.22;67.15;;;22.80;53.80;;;;;;4759203;55;21586;-32
2022/10/21 14:18:31;;;;;;;93.12;68.80;;;22.80;53.80;;;;;;4762314;55;21022;-39
2022/10/21 14:23:33;;;;;;;88.37;68.82;;;22.80;53.80;;;;;;4771666;55;20983;-30
2022/10/21 14:28:35;;;;;;;85.57;66.60;;;22.80;53.90;;;;;;4776060;55;21042;-31
2022/10/21 14:33:38;;;;;;;89.37;65.82;;;22.80;53.90;;;;;;4755144;55;21010;-34
2022/10/21 14:38:49;;;;;;;80.25;64.10;;;22.80;54.00;;;;;;4791452;55;22079;-33
2022/10/21 14:43:52;;;;;;;86.25;65.40;;;22.70;53.90;;;;;;4743604;55;20986;-32
2022/10/21 14:49:02;;;;;;;82.65;65.43;;;22.80;54.00;;;;;;4748347;55;21492;-35
2022/10/21 14:54:06;;;;;;;85.62;65.47;;;22.80;54.00;;;;;;4767324;55;21497;-30
2022/10/21 14:59:24;;;;;;;80.30;64.37;;;22.80;54.10;;;;;;4754102;55;21658;-30
2022/10/21 15:04:51;;;;;;;80.68;64.15;;;22.80;54.10;;;;;;4738000;59;20994;-28
2022/10/21 15:10:07;;;;;;;;;;;22.70;54.10;;;;;;4765377;55;21076;-31
2022/10/21 15:15:43;;;;;;;84.32;64.30;;;22.80;54.20;;;;;;4753482;55;20152;-33
2022/10/21 15:21:00;;;;;;;82.47;62.40;;;22.80;54.20;;;;;;4759889;55;21002;-31
2022/10/21 15:26:08;;;;;;;80.57;60.15;;;22.80;54.20;;;;;;4755999;55;21464;-35
2022/10/21 15:31:21;;;;;;;80.10;61.50;;;22.70;54.30;;;;;;4752643;55;21077;-35
2022/10/21 15:36:23;;;;;;;75.10;58.25;;;22.70;54.20;;;;;;4764748;55;21176;-33
2022/10/21 15:41:25;;;;;;;76.18;59.85;;;22.70;54.30;;;;;;4752607;55;21515;-29
2022/10/21 15:46:28;;;;;;;81.40;61.70;;;22.70;54.20;;;;;;4738033;59;21026;-39
2022/10/21 15:51:29;;;;;;;78.43;61.03;;;22.70;54.30;;;;;;4737706;59;21548;-33
2022/10/21 15:56:29;;;;;;;75.22;57.83;;;22.70;54.40;;;;;;4780593;55;21121;-33
2022/10/21 16:01:30;;;;;;;75.43;58.30;;;22.70;54.40;;;;;;4749909;55;21088;-34
2022/10/21 16:06:31;;;;;;;77.45;59.63;;;22.60;54.40;;;;;;4738636;59;21006;-35
2022/10/21 16:11:32;;;;;;;76.20;60.10;;;22.70;54.50;;;;;;4737810;59;21924;-33
2022/10/21 16:16:33;;;;;;;77.18;60.40;;;22.70;54.50;;;;;;4738495;55;21077;-33
2022/10/21 16:21:33;;;;;;;76.95;59.25;;;22.70;54.50;;;;;;4755697;55;21571;-38
2022/10/21 16:26:43;;;;;;;75.93;59.47;;;22.70;54.50;;;;;;4752697;55;21078;-34
2022/10/21 16:31:43;;;;;;;73.20;58.55;;;22.70;54.60;;;;;;4786313;55;20987;-34
2022/10/21 16:36:44;;;;;;;74.12;58.40;;;22.70;54.70;;;;;;4743883;55;21050;-33
2022/10/21 16:41:45;;;;;;;76.62;59.22;;;22.60;54.50;;;;;;4741456;55;21195;-35
2022/10/21 16:46:52;;;;;;;74.65;58.33;;;22.60;54.60;;;;;;4751935;55;21465;-28
2022/10/21 16:51:53;;;;;;;76.30;59.75;;;22.70;54.80;;;;;;4784668;55;21033;-32
2022/10/21 16:56:54;;;;;;;74.35;58.35;;;22.60;54.70;;;;;;4776450;55;21547;-34
2022/10/21 17:01:58;;;;;;;71.78;58.20;;;22.70;54.80;;;;;;4737838;59;21058;-29
2022/10/21 17:07:00;;;;;;;73.65;57.42;;;22.60;54.80;;;;;;4737977;59;21045;-27
2022/10/21 17:12:03;;;;;;;75.10;57.28;;;22.60;54.80;;;;;;4746172;55;21540;-37
2022/10/21 17:17:04;;;;;;;73.75;58.35;;;22.60;54.80;;;;;;4758467;55;22392;-32
2022/10/21 17:22:05;;;;;;;75.75;60.50;;;22.60;54.90;;;;;;4738386;59;21473;-36
2022/10/21 17:27:06;;;;;;;73.00;59.78;;;22.70;55.00;;;;;;4765557;55;21022;-33
2022/10/21 17:32:07;;;;;;;75.30;59.58;;;22.60;54.90;;;;;;4760176;55;21005;-32
2022/10/21 17:37:09;;;;;;;76.28;59.80;;;22.60;55.00;;;;;;4796864;55;21582;-30
2022/10/21 17:42:15;;;;;;;72.82;58.35;;;22.60;55.00;;;;;;4760109;55;21066;-33
2022/10/21 17:47:16;;;;;;;76.35;59.38;;;22.60;55.00;;;;;;4744220;55;21583;-36
2022/10/21 17:52:17;;;;;;;80.75;60.60;;;22.60;55.10;;;;;;4758659;55;21050;-32
2022/10/21 17:57:18;;;;;;;79.25;62.10;;;22.60;55.10;;;;;;4737357;59;21057;-32
2022/10/21 18:02:19;;;;;;;80.00;61.47;;;22.60;55.10;;;;;;4738143;55;21061;-36
2022/10/21 18:07:20;;;;;;;78.32;60.40;;;22.60;55.10;;;;;;4783524;55;21078;-33
2022/10/21 18:12:22;;;;;;;75.78;58.92;;;22.60;55.10;;;;;;4792184;55;21021;-36
2022/10/21 18:17:22;;;;;;;77.28;59.50;;;22.60;55.10;;;;;;4772369;55;21034;-30
2022/10/21 18:22:23;;;;;;;76.90;59.80;;;22.60;55.20;;;;;;4767604;55;21511;-38
2022/10/21 18:27:24;;;;;;;80.57;62.08;;;22.60;55.20;;;;;;4760165;55;21029;-36
2022/10/21 18:32:25;;;;;;;78.47;60.30;;;22.60;55.80;;;;;;4740149;55;21074;-35
2022/10/21 18:37:25;;;;;;;81.65;63.10;;;22.60;55.30;;;;;;4744752;55;21022;-31
2022/10/21 18:42:27;;;;;;;85.45;64.12;;;22.60;55.30;;;;;;4757522;55;21010;-34
2022/10/21 18:47:28;;;;;;;80.85;62.67;;;22.60;55.30;;;;;;4744234;55;21061;-29
2022/10/21 18:52:28;;;;;;;85.35;66.60;;;22.60;55.30;;;;;;4783883;55;20985;-28
2022/10/21 18:57:29;;;;;;;85.12;64.07;;;22.60;55.40;;;;;;4737837;59;21045;-38
2022/10/21 19:02:30;;;;;;;85.68;65.95;;;22.60;55.30;;;;;;4747156;55;21006;-34
2022/10/21 19:07:32;;;;;;;85.28;67.78;;;22.60;55.30;;;;;;4746463;55;21125;-37
2022/10/21 19:12:33;;;;;;;84.57;65.32;;;22.60;55.30;;;;;;4752529;55;21049;-31
2022/10/21 19:17:33;;;;;;;86.72;66.03;;;22.60;55.30;;;;;;4737900;55;21054;-35
2022/10/21 19:22:37;;;;;;;88.97;67.47;;;22.60;55.40;;;;;;4746935;55;21002;-33
2022/10/21 19:27:38;;;;;;;87.93;66.72;;;22.60;55.30;;;;;;4757323;55;21110;-32
2022/10/21 19:32:39;;;;;;;87.35;67.15;;;22.60;55.30;;;;;;4754232;55;21081;-35
2022/10/21 19:37:40;;;;;;;86.82;66.50;;;22.60;55.30;;;;;;4763738;55;21017;-34
2022/10/21 19:42:40;;;;;;;89.68;68.22;;;22.60;55.40;;;;;;4745142;55;20986;-29
2022/10/21 19:47:43;;;;;;;88.30;67.85;;;22.50;55.40;;;;;;4747093;55;21010;-33
2022/10/21 19:52:44;;;;;;;90.70;69.62;;;22.60;55.40;;;;;;4743792;55;21027;-33
2022/10/21 19:57:45;;;;;;;91.70;68.18;;;22.60;55.40;;;;;;4737896;59;21027;-29
2022/10/21 20:02:46;;;;;;;91.63;68.50;;;22.60;55.40;;;;;;4754146;55;21515;-33
2022/10/21 20:07:46;;;;;;;87.22;67.43;;;22.60;56.10;;;;;;4748410;55;21009;-39
2022/10/21 20:12:47;;;;;;;92.03;68.07;;;22.50;55.40;;;;;;4746592;55;21069;-39
2022/10/21 20:17:48;;;;;;;87.90;67.43;;;22.50;55.30;;;;;;4751313;55;21025;-39
2022/10/21 20:22:49;;;;;;;91.60;68.12;;;22.60;55.40;;;;;;4743946;55;20998;-34
2022/10/21 20:27:50;;;;;;;90.35;68.82;;;22.50;55.30;;;;;;4756988;55;21097;-36
2022/10/21 20:32:51;;;;;;;92.55;68.75;;;22.50;55.40;;;;;;4753027;55;20974;-32
2022/10/21 20:37:52;;;;;;;90.60;67.87;;;22.50;55.40;;;;;;4761984;55;21559;-34
2022/10/21 20:42:56;;;;;;;88.10;66.40;;;22.50;55.40;;;;;;4785584;55;21045;-32
2022/10/21 20:47:56;;;;;;;88.57;68.72;;;22.60;55.40;;;;;;4757879;55;20994;-35
2022/10/21 20:52:57;;;;;;;88.47;66.78;;;22.60;55.50;;;;;;4747271;55;21061;-35
2022/10/21 20:57:58;;;;;;;87.62;66.75;;;22.60;55.40;;;;;;4744940;55;21030;-31
2022/10/21 21:02:59;;;;;;;89.28;66.87;;;22.50;55.30;;;;;;4739053;59;21476;-34
2022/10/21 21:07:59;;;;;;;90.75;67.20;;;22.60;55.40;;;;;;4745491;55;21935;-39
2022/10/21 21:13:00;;;;;;;90.20;67.15;;;22.50;55.30;;;;;;4747003;55;21057;-40
2022/10/21 21:18:02;;;;;;;90.00;67.78;;;22.50;55.40;;;;;;4747195;55;21022;-36
2022/10/21 21:23:03;;;;;;;91.20;68.47;;;22.50;55.40;;;;;;4742126;55;21577;-32
2022/10/21 21:28:04;;;;;;;85.32;65.25;;;22.50;55.30;;;;;;4737536;59;21026;-33
2022/10/21 21:33:05;;;;;;;84.62;65.78;;;22.50;55.30;;;;;;4757227;55;21042;-34
2022/10/21 21:38:07;;;;;;;88.95;65.10;;;22.50;55.30;;;;;;4747430;55;21516;-37
2022/10/21 21:43:08;;;;;;;87.57;66.65;;;22.50;55.40;;;;;;4738259;59;21027;-32
2022/10/21 21:48:08;;;;;;;87.95;66.20;;;22.50;55.40;;;;;;4750643;55;21009;-35
2022/10/21 21:53:12;;;;;;;88.50;65.90;;;22.50;55.40;;;;;;4737777;59;21030;-37
2022/10/21 21:58:12;;;;;;;83.20;62.05;;;22.50;55.40;;;;;;4749505;55;21006;-29
2022/10/21 22:03:13;;;;;;;81.18;61.25;;;22.50;55.40;;;;;;4782619;55;21021;-36
2022/10/21 22:08:14;;;;;;;88.35;65.05;;;22.50;55.40;;;;;;4737921;59;21562;-37
2022/10/21 22:13:15;;;;;;;86.28;63.42;;;22.50;55.40;;;;;;4738148;59;21048;-34
2022/10/21 22:18:15;;;;;;;79.32;61.17;;;22.50;55.50;;;;;;4746684;55;21022;-32
2022/10/21 22:23:18;;;;;;;84.10;62.72;;;22.50;55.50;;;;;;4746947;55;21030;-36
2022/10/21 22:28:19;;;;;;;83.12;62.13;;;22.50;55.50;;;;;;4756244;55;21519;-34
2022/10/21 22:33:20;;;;;;;83.25;61.55;;;22.50;55.50;;;;;;4740551;55;21082;-34
2022/10/21 22:38:21;;;;;;;83.95;62.75;;;22.50;55.50;;;;;;4738677;55;21010;-35
2022/10/21 22:43:25;;;;;;;77.37;60.60;;;22.50;55.50;;;;;;4746904;55;20986;-38
2022/10/21 22:48:26;;;;;;;80.95;60.40;;;22.50;55.50;;;;;;4743564;55;21022;-34
2022/10/21 22:53:27;;;;;;;79.70;60.28;;;22.50;55.50;;;;;;4786991;55;21471;-40
2022/10/21 22:58:27;;;;;;;77.07;58.90;;;22.50;55.50;;;;;;4738566;55;21089;-36
2022/10/21 23:03:28;;;;;;;80.40;59.78;;;22.50;55.50;;;;;;4739095;59;20998;-29
2022/10/21 23:08:29;;;;;;;83.70;60.78;;;22.50;55.30;;;;;;4741196;55;21033;-37
2022/10/21 23:13:30;;;;;;;80.10;60.47;;;22.50;55.60;;;;;;4739049;59;21014;-36
2022/10/21 23:18:32;;;;;;;78.00;58.47;;;22.50;55.60;;;;;;4737975;55;21063;-35
2022/10/21 23:23:32;;;;;;;81.28;61.83;;;22.50;55.60;;;;;;4737995;59;21042;-38
2022/10/21 23:28:34;;;;;;;79.72;60.42;;;22.50;55.60;;;;;;4745789;55;21030;-35
2022/10/21 23:33:34;;;;;;;78.03;58.87;;;22.50;55.60;;;;;;4744514;55;21066;-38
2022/10/21 23:38:35;;;;;;;79.75;59.53;;;22.30;55.50;;;;;;4762354;55;21017;-36
2022/10/21 23:43:36;;;;;;;74.40;56.63;;;22.50;55.70;;;;;;4746024;55;21044;-34
2022/10/21 23:48:37;;;;;;;77.45;58.40;;;22.50;55.70;;;;;;4746127;55;21260;-39
2022/10/21 23:53:37;;;;;;;77.35;57.25;;;22.50;55.70;;;;;;4739899;55;22234;-38
2022/10/21 23:58:38;;;;;;;76.30;58.22;;;22.50;55.70;;;;;;4756138;55;21018;-36
